sensor_id;sensor_type;location;lat;lon;timestamp;P1;durP1;ratioP1;P2;durP2;ratioP2
39032;SDS011;24794;51.982;5.878;2023-11-19T00:00:46;28.00;;;17.58;;
39032;SDS011;24794;51.982;5.878;2023-11-19T00:01:47;28.85;;;19.95;;
39032;SDS011;24794;51.982;5.878;2023-11-19T00:02:47;22.33;;;17.58;;
39032;SDS011;24794;51.982;5.878;2023-11-19T00:03:48;25.85;;;17.70;;
39032;SDS011;24794;51.982;5.878;2023-11-19T00:04:49;24.42;;;17.63;;
39032;SDS011;24794;51.982;5.878;2023-11-19T00:05:49;19.52;;;14.52;;
39032;SDS011;24794;51.982;5.878;2023-11-19T00:06:50;30.13;;;19.80;;
39032;SDS011;24794;51.982;5.878;2023-11-19T00:07:51;23.83;;;17.25;;
39032;SDS011;24794;51.982;5.878;2023-11-19T00:08:52;22.58;;;19.00;;
39032;SDS011;24794;51.982;5.878;2023-11-19T00:09:52;28.00;;;19.48;;
39032;SDS011;24794;51.982;5.878;2023-11-19T00:10:55;29.45;;;18.27;;
39032;SDS011;24794;51.982;5.878;2023-11-19T00:11:55;33.70;;;19.55;;
39032;SDS011;24794;51.982;5.878;2023-11-19T00:12:56;24.00;;;16.90;;
39032;SDS011;24794;51.982;5.878;2023-11-19T00:13:57;25.73;;;17.20;;
39032;SDS011;24794;51.982;5.878;2023-11-19T00:14:57;25.50;;;18.38;;
39032;SDS011;24794;51.982;5.878;2023-11-19T00:15:58;23.50;;;16.27;;
39032;SDS011;24794;51.982;5.878;2023-11-19T00:16:58;23.98;;;17.73;;
39032;SDS011;24794;51.982;5.878;2023-11-19T00:17:59;24.48;;;16.02;;
39032;SDS011;24794;51.982;5.878;2023-11-19T00:18:59;27.45;;;18.15;;
39032;SDS011;24794;51.982;5.878;2023-11-19T00:20:00;34.95;;;18.88;;
39032;SDS011;24794;51.982;5.878;2023-11-19T00:21:00;26.35;;;17.02;;
39032;SDS011;24794;51.982;5.878;2023-11-19T00:22:02;29.63;;;18.33;;
39032;SDS011;24794;51.982;5.878;2023-11-19T00:23:03;26.15;;;17.83;;
39032;SDS011;24794;51.982;5.878;2023-11-19T00:24:04;24.77;;;17.98;;
39032;SDS011;24794;51.982;5.878;2023-11-19T00:25:05;21.33;;;15.38;;
39032;SDS011;24794;51.982;5.878;2023-11-19T00:26:06;22.83;;;17.65;;
39032;SDS011;24794;51.982;5.878;2023-11-19T00:27:06;28.08;;;19.00;;
39032;SDS011;24794;51.982;5.878;2023-11-19T00:28:07;22.90;;;15.80;;
39032;SDS011;24794;51.982;5.878;2023-11-19T00:29:08;24.63;;;17.10;;
39032;SDS011;24794;51.982;5.878;2023-11-19T00:30:08;21.98;;;15.48;;
39032;SDS011;24794;51.982;5.878;2023-11-19T00:31:09;26.20;;;17.20;;
39032;SDS011;24794;51.982;5.878;2023-11-19T00:32:10;22.27;;;16.55;;
39032;SDS011;24794;51.982;5.878;2023-11-19T00:33:11;19.35;;;14.95;;
39032;SDS011;24794;51.982;5.878;2023-11-19T00:34:12;29.58;;;17.40;;
39032;SDS011;24794;51.982;5.878;2023-11-19T00:35:13;27.40;;;16.63;;
39032;SDS011;24794;51.982;5.878;2023-11-19T00:36:16;20.08;;;13.73;;
39032;SDS011;24794;51.982;5.878;2023-11-19T00:37:17;26.10;;;15.77;;
39032;SDS011;24794;51.982;5.878;2023-11-19T00:38:17;23.83;;;15.00;;
39032;SDS011;24794;51.982;5.878;2023-11-19T00:39:18;22.80;;;15.45;;
39032;SDS011;24794;51.982;5.878;2023-11-19T00:40:21;27.52;;;14.88;;
39032;SDS011;24794;51.982;5.878;2023-11-19T00:41:23;24.67;;;13.98;;
39032;SDS011;24794;51.982;5.878;2023-11-19T00:42:23;26.02;;;15.18;;
39032;SDS011;24794;51.982;5.878;2023-11-19T00:43:24;20.00;;;13.50;;
39032;SDS011;24794;51.982;5.878;2023-11-19T00:44:26;29.40;;;14.80;;
39032;SDS011;24794;51.982;5.878;2023-11-19T00:45:26;26.15;;;14.40;;
39032;SDS011;24794;51.982;5.878;2023-11-19T00:46:27;25.92;;;13.27;;
39032;SDS011;24794;51.982;5.878;2023-11-19T00:47:27;23.42;;;14.00;;
39032;SDS011;24794;51.982;5.878;2023-11-19T00:48:28;20.42;;;13.07;;
39032;SDS011;24794;51.982;5.878;2023-11-19T00:49:28;22.50;;;11.90;;
39032;SDS011;24794;51.982;5.878;2023-11-19T00:50:29;21.83;;;11.35;;
39032;SDS011;24794;51.982;5.878;2023-11-19T00:51:31;30.17;;;11.43;;
39032;SDS011;24794;51.982;5.878;2023-11-19T00:52:31;21.42;;;10.35;;
39032;SDS011;24794;51.982;5.878;2023-11-19T00:53:32;16.25;;;9.65;;
39032;SDS011;24794;51.982;5.878;2023-11-19T00:54:33;22.83;;;9.75;;
39032;SDS011;24794;51.982;5.878;2023-11-19T00:55:34;29.83;;;10.45;;
39032;SDS011;24794;51.982;5.878;2023-11-19T00:56:34;27.75;;;8.95;;
39032;SDS011;24794;51.982;5.878;2023-11-19T00:57:35;21.98;;;8.93;;
39032;SDS011;24794;51.982;5.878;2023-11-19T00:58:36;23.73;;;9.65;;
39032;SDS011;24794;51.982;5.878;2023-11-19T00:59:37;24.30;;;9.57;;
39032;SDS011;24794;51.982;5.878;2023-11-19T01:00:38;20.45;;;9.18;;
39032;SDS011;24794;51.982;5.878;2023-11-19T01:01:38;24.70;;;9.93;;
39032;SDS011;24794;51.982;5.878;2023-11-19T01:02:39;18.83;;;8.57;;
39032;SDS011;24794;51.982;5.878;2023-11-19T01:03:39;26.45;;;8.80;;
39032;SDS011;24794;51.982;5.878;2023-11-19T01:04:40;29.35;;;9.95;;
39032;SDS011;24794;51.982;5.878;2023-11-19T01:05:43;27.00;;;8.82;;
39032;SDS011;24794;51.982;5.878;2023-11-19T01:06:44;28.15;;;9.55;;
39032;SDS011;24794;51.982;5.878;2023-11-19T01:07:45;25.55;;;8.98;;
39032;SDS011;24794;51.982;5.878;2023-11-19T01:08:45;23.25;;;8.10;;
39032;SDS011;24794;51.982;5.878;2023-11-19T01:09:45;31.45;;;8.65;;
39032;SDS011;24794;51.982;5.878;2023-11-19T01:10:46;21.30;;;8.25;;
39032;SDS011;24794;51.982;5.878;2023-11-19T01:11:47;26.83;;;8.05;;
39032;SDS011;24794;51.982;5.878;2023-11-19T01:12:48;25.92;;;8.20;;
39032;SDS011;24794;51.982;5.878;2023-11-19T01:13:49;26.35;;;8.07;;
39032;SDS011;24794;51.982;5.878;2023-11-19T01:14:50;27.48;;;8.27;;
39032;SDS011;24794;51.982;5.878;2023-11-19T01:15:50;26.38;;;7.75;;
39032;SDS011;24794;51.982;5.878;2023-11-19T01:16:51;25.25;;;7.97;;
39032;SDS011;24794;51.982;5.878;2023-11-19T01:17:53;25.50;;;7.05;;
39032;SDS011;24794;51.982;5.878;2023-11-19T01:18:54;24.95;;;7.03;;
39032;SDS011;24794;51.982;5.878;2023-11-19T01:19:56;31.88;;;7.72;;
39032;SDS011;24794;51.982;5.878;2023-11-19T01:20:56;30.15;;;7.78;;
39032;SDS011;24794;51.982;5.878;2023-11-19T01:21:57;22.77;;;6.82;;
39032;SDS011;24794;51.982;5.878;2023-11-19T01:22:57;26.40;;;6.72;;
39032;SDS011;24794;51.982;5.878;2023-11-19T01:23:58;20.95;;;6.25;;
39032;SDS011;24794;51.982;5.878;2023-11-19T01:24:59;22.05;;;5.55;;
39032;SDS011;24794;51.982;5.878;2023-11-19T01:26:00;28.63;;;6.28;;
39032;SDS011;24794;51.982;5.878;2023-11-19T01:27:00;30.35;;;6.22;;
39032;SDS011;24794;51.982;5.878;2023-11-19T01:28:01;26.92;;;6.38;;
39032;SDS011;24794;51.982;5.878;2023-11-19T01:29:02;19.77;;;5.22;;
39032;SDS011;24794;51.982;5.878;2023-11-19T01:30:04;33.97;;;6.05;;
39032;SDS011;24794;51.982;5.878;2023-11-19T01:31:09;25.83;;;6.32;;
39032;SDS011;24794;51.982;5.878;2023-11-19T01:32:10;30.02;;;7.35;;
39032;SDS011;24794;51.982;5.878;2023-11-19T01:33:12;24.85;;;6.30;;
39032;SDS011;24794;51.982;5.878;2023-11-19T01:34:13;23.75;;;6.18;;
39032;SDS011;24794;51.982;5.878;2023-11-19T01:35:13;29.35;;;6.07;;
39032;SDS011;24794;51.982;5.878;2023-11-19T01:36:14;25.95;;;5.63;;
39032;SDS011;24794;51.982;5.878;2023-11-19T01:37:15;22.85;;;5.30;;
39032;SDS011;24794;51.982;5.878;2023-11-19T01:38:15;24.33;;;6.75;;
39032;SDS011;24794;51.982;5.878;2023-11-19T01:39:16;27.73;;;5.53;;
39032;SDS011;24794;51.982;5.878;2023-11-19T01:40:20;30.13;;;6.88;;
39032;SDS011;24794;51.982;5.878;2023-11-19T01:41:21;34.20;;;6.47;;
39032;SDS011;24794;51.982;5.878;2023-11-19T01:42:22;24.35;;;5.55;;
39032;SDS011;24794;51.982;5.878;2023-11-19T01:43:32;29.15;;;5.53;;
39032;SDS011;24794;51.982;5.878;2023-11-19T01:44:36;24.73;;;5.75;;
39032;SDS011;24794;51.982;5.878;2023-11-19T01:45:36;28.60;;;5.13;;
39032;SDS011;24794;51.982;5.878;2023-11-19T01:46:40;34.75;;;6.15;;
39032;SDS011;24794;51.982;5.878;2023-11-19T01:47:43;33.53;;;5.30;;
39032;SDS011;24794;51.982;5.878;2023-11-19T01:48:44;34.72;;;5.40;;
39032;SDS011;24794;51.982;5.878;2023-11-19T01:49:46;38.33;;;6.28;;
39032;SDS011;24794;51.982;5.878;2023-11-19T01:50:46;25.40;;;5.90;;
39032;SDS011;24794;51.982;5.878;2023-11-19T01:51:47;29.10;;;5.32;;
39032;SDS011;24794;51.982;5.878;2023-11-19T01:52:48;29.33;;;6.85;;
39032;SDS011;24794;51.982;5.878;2023-11-19T01:53:48;33.05;;;5.30;;
39032;SDS011;24794;51.982;5.878;2023-11-19T01:54:50;26.73;;;5.38;;
39032;SDS011;24794;51.982;5.878;2023-11-19T01:55:52;34.58;;;6.28;;
39032;SDS011;24794;51.982;5.878;2023-11-19T01:56:53;36.05;;;5.90;;
39032;SDS011;24794;51.982;5.878;2023-11-19T01:57:58;37.97;;;6.50;;
39032;SDS011;24794;51.982;5.878;2023-11-19T01:59:00;30.15;;;5.53;;
39032;SDS011;24794;51.982;5.878;2023-11-19T02:00:03;31.23;;;5.32;;
39032;SDS011;24794;51.982;5.878;2023-11-19T02:01:05;37.90;;;6.38;;
39032;SDS011;24794;51.982;5.878;2023-11-19T02:02:07;34.38;;;5.47;;
39032;SDS011;24794;51.982;5.878;2023-11-19T02:03:07;36.08;;;5.90;;
39032;SDS011;24794;51.982;5.878;2023-11-19T02:04:08;35.92;;;5.53;;
39032;SDS011;24794;51.982;5.878;2023-11-19T02:05:10;42.40;;;6.10;;
39032;SDS011;24794;51.982;5.878;2023-11-19T02:06:12;32.42;;;5.18;;
39032;SDS011;24794;51.982;5.878;2023-11-19T02:07:13;40.53;;;6.10;;
39032;SDS011;24794;51.982;5.878;2023-11-19T02:08:14;26.10;;;5.68;;
39032;SDS011;24794;51.982;5.878;2023-11-19T02:09:15;32.88;;;5.63;;
39032;SDS011;24794;51.982;5.878;2023-11-19T02:10:19;34.28;;;5.60;;
39032;SDS011;24794;51.982;5.878;2023-11-19T02:11:19;33.55;;;5.88;;
39032;SDS011;24794;51.982;5.878;2023-11-19T02:12:20;30.02;;;5.55;;
39032;SDS011;24794;51.982;5.878;2023-11-19T02:13:20;23.48;;;5.05;;
39032;SDS011;24794;51.982;5.878;2023-11-19T02:14:25;29.60;;;5.88;;
39032;SDS011;24794;51.982;5.878;2023-11-19T02:15:26;29.23;;;5.50;;
39032;SDS011;24794;51.982;5.878;2023-11-19T02:16:26;26.60;;;4.65;;
39032;SDS011;24794;51.982;5.878;2023-11-19T02:17:31;28.52;;;5.25;;
39032;SDS011;24794;51.982;5.878;2023-11-19T02:18:31;34.60;;;5.40;;
39032;SDS011;24794;51.982;5.878;2023-11-19T02:19:32;34.85;;;5.70;;
39032;SDS011;24794;51.982;5.878;2023-11-19T02:20:33;35.47;;;6.65;;
39032;SDS011;24794;51.982;5.878;2023-11-19T02:21:34;27.10;;;5.13;;
39032;SDS011;24794;51.982;5.878;2023-11-19T02:22:34;30.05;;;4.78;;
39032;SDS011;24794;51.982;5.878;2023-11-19T02:23:35;34.67;;;5.10;;
39032;SDS011;24794;51.982;5.878;2023-11-19T02:24:35;41.97;;;4.68;;
39032;SDS011;24794;51.982;5.878;2023-11-19T02:25:36;30.05;;;5.43;;
39032;SDS011;24794;51.982;5.878;2023-11-19T02:26:49;31.55;;;4.45;;
39032;SDS011;24794;51.982;5.878;2023-11-19T02:27:58;34.72;;;5.43;;
39032;SDS011;24794;51.982;5.878;2023-11-19T02:29:00;34.55;;;5.20;;
39032;SDS011;24794;51.982;5.878;2023-11-19T02:30:01;35.58;;;5.25;;
39032;SDS011;24794;51.982;5.878;2023-11-19T02:31:03;42.15;;;7.18;;
39032;SDS011;24794;51.982;5.878;2023-11-19T02:32:09;38.83;;;4.88;;
39032;SDS011;24794;51.982;5.878;2023-11-19T02:33:09;32.47;;;5.15;;
39032;SDS011;24794;51.982;5.878;2023-11-19T02:34:10;28.25;;;4.53;;
39032;SDS011;24794;51.982;5.878;2023-11-19T02:35:12;34.42;;;4.45;;
39032;SDS011;24794;51.982;5.878;2023-11-19T02:36:13;37.75;;;5.03;;
39032;SDS011;24794;51.982;5.878;2023-11-19T02:37:13;28.48;;;4.63;;
39032;SDS011;24794;51.982;5.878;2023-11-19T02:38:14;33.50;;;4.97;;
39032;SDS011;24794;51.982;5.878;2023-11-19T02:39:15;44.00;;;5.20;;
39032;SDS011;24794;51.982;5.878;2023-11-19T02:40:21;30.48;;;4.75;;
39032;SDS011;24794;51.982;5.878;2023-11-19T02:41:24;34.10;;;4.68;;
39032;SDS011;24794;51.982;5.878;2023-11-19T02:42:24;33.88;;;4.90;;
39032;SDS011;24794;51.982;5.878;2023-11-19T02:43:25;35.30;;;5.13;;
39032;SDS011;24794;51.982;5.878;2023-11-19T02:44:25;34.05;;;4.38;;
39032;SDS011;24794;51.982;5.878;2023-11-19T02:45:28;30.70;;;5.00;;
39032;SDS011;24794;51.982;5.878;2023-11-19T02:46:30;34.75;;;5.63;;
39032;SDS011;24794;51.982;5.878;2023-11-19T02:47:32;33.50;;;4.82;;
39032;SDS011;24794;51.982;5.878;2023-11-19T02:48:33;38.10;;;5.53;;
39032;SDS011;24794;51.982;5.878;2023-11-19T02:49:37;32.45;;;5.20;;
39032;SDS011;24794;51.982;5.878;2023-11-19T02:50:38;41.38;;;4.97;;
39032;SDS011;24794;51.982;5.878;2023-11-19T02:51:38;33.88;;;5.45;;
39032;SDS011;24794;51.982;5.878;2023-11-19T02:52:39;36.05;;;4.97;;
39032;SDS011;24794;51.982;5.878;2023-11-19T02:53:43;35.10;;;5.10;;
39032;SDS011;24794;51.982;5.878;2023-11-19T02:54:44;40.78;;;4.95;;
39032;SDS011;24794;51.982;5.878;2023-11-19T02:55:45;37.88;;;5.03;;
39032;SDS011;24794;51.982;5.878;2023-11-19T02:56:50;37.63;;;5.57;;
39032;SDS011;24794;51.982;5.878;2023-11-19T02:57:55;43.13;;;5.13;;
39032;SDS011;24794;51.982;5.878;2023-11-19T02:58:58;39.92;;;5.28;;
39032;SDS011;24794;51.982;5.878;2023-11-19T02:59:59;41.63;;;5.10;;
39032;SDS011;24794;51.982;5.878;2023-11-19T03:01:00;31.52;;;5.28;;
39032;SDS011;24794;51.982;5.878;2023-11-19T03:02:09;39.13;;;5.75;;
39032;SDS011;24794;51.982;5.878;2023-11-19T03:03:15;40.70;;;5.15;;
39032;SDS011;24794;51.982;5.878;2023-11-19T03:04:22;41.17;;;5.30;;
39032;SDS011;24794;51.982;5.878;2023-11-19T03:05:23;30.58;;;4.63;;
39032;SDS011;24794;51.982;5.878;2023-11-19T03:06:24;40.63;;;5.90;;
39032;SDS011;24794;51.982;5.878;2023-11-19T03:07:25;37.53;;;5.50;;
39032;SDS011;24794;51.982;5.878;2023-11-19T03:08:27;43.65;;;5.88;;
39032;SDS011;24794;51.982;5.878;2023-11-19T03:09:27;36.97;;;5.30;;
39032;SDS011;24794;51.982;5.878;2023-11-19T03:10:29;34.92;;;4.88;;
39032;SDS011;24794;51.982;5.878;2023-11-19T03:11:29;39.75;;;5.78;;
39032;SDS011;24794;51.982;5.878;2023-11-19T03:12:30;47.60;;;6.15;;
39032;SDS011;24794;51.982;5.878;2023-11-19T03:13:31;44.10;;;5.68;;
39032;SDS011;24794;51.982;5.878;2023-11-19T03:14:33;42.08;;;6.68;;
39032;SDS011;24794;51.982;5.878;2023-11-19T03:15:34;43.35;;;5.15;;
39032;SDS011;24794;51.982;5.878;2023-11-19T03:16:35;50.92;;;6.43;;
39032;SDS011;24794;51.982;5.878;2023-11-19T03:17:36;43.58;;;5.53;;
39032;SDS011;24794;51.982;5.878;2023-11-19T03:18:40;49.00;;;6.57;;
39032;SDS011;24794;51.982;5.878;2023-11-19T03:19:41;40.60;;;5.75;;
39032;SDS011;24794;51.982;5.878;2023-11-19T03:20:41;45.35;;;5.93;;
39032;SDS011;24794;51.982;5.878;2023-11-19T03:21:42;46.80;;;6.68;;
39032;SDS011;24794;51.982;5.878;2023-11-19T03:22:43;43.60;;;5.72;;
39032;SDS011;24794;51.982;5.878;2023-11-19T03:23:44;38.05;;;5.60;;
39032;SDS011;24794;51.982;5.878;2023-11-19T03:24:44;45.83;;;6.18;;
39032;SDS011;24794;51.982;5.878;2023-11-19T03:25:44;42.28;;;6.30;;
39032;SDS011;24794;51.982;5.878;2023-11-19T03:26:48;48.35;;;6.47;;
39032;SDS011;24794;51.982;5.878;2023-11-19T03:27:52;55.40;;;7.55;;
39032;SDS011;24794;51.982;5.878;2023-11-19T03:28:53;48.83;;;5.97;;
39032;SDS011;24794;51.982;5.878;2023-11-19T03:29:54;46.28;;;6.15;;
39032;SDS011;24794;51.982;5.878;2023-11-19T03:30:54;51.90;;;5.97;;
39032;SDS011;24794;51.982;5.878;2023-11-19T03:31:55;42.35;;;5.43;;
39032;SDS011;24794;51.982;5.878;2023-11-19T03:32:56;47.10;;;6.53;;
39032;SDS011;24794;51.982;5.878;2023-11-19T03:33:57;47.75;;;6.18;;
39032;SDS011;24794;51.982;5.878;2023-11-19T03:34:57;44.63;;;6.47;;
39032;SDS011;24794;51.982;5.878;2023-11-19T03:35:59;48.60;;;6.07;;
39032;SDS011;24794;51.982;5.878;2023-11-19T03:36:59;45.50;;;5.75;;
39032;SDS011;24794;51.982;5.878;2023-11-19T03:38:00;41.58;;;5.22;;
39032;SDS011;24794;51.982;5.878;2023-11-19T03:39:01;46.17;;;5.63;;
39032;SDS011;24794;51.982;5.878;2023-11-19T03:40:03;39.63;;;6.40;;
39032;SDS011;24794;51.982;5.878;2023-11-19T03:41:10;45.83;;;6.60;;
39032;SDS011;24794;51.982;5.878;2023-11-19T03:42:11;45.47;;;6.50;;
39032;SDS011;24794;51.982;5.878;2023-11-19T03:43:13;46.35;;;6.55;;
39032;SDS011;24794;51.982;5.878;2023-11-19T03:44:13;42.25;;;6.57;;
39032;SDS011;24794;51.982;5.878;2023-11-19T03:45:14;45.10;;;6.47;;
39032;SDS011;24794;51.982;5.878;2023-11-19T03:46:18;42.03;;;6.25;;
39032;SDS011;24794;51.982;5.878;2023-11-19T03:47:20;55.75;;;7.53;;
39032;SDS011;24794;51.982;5.878;2023-11-19T03:48:20;44.47;;;6.57;;
39032;SDS011;24794;51.982;5.878;2023-11-19T03:49:21;45.72;;;6.60;;
39032;SDS011;24794;51.982;5.878;2023-11-19T03:50:21;44.10;;;7.25;;
39032;SDS011;24794;51.982;5.878;2023-11-19T03:51:22;54.92;;;7.07;;
39032;SDS011;24794;51.982;5.878;2023-11-19T03:52:22;52.00;;;7.63;;
39032;SDS011;24794;51.982;5.878;2023-11-19T03:53:23;51.53;;;6.63;;
39032;SDS011;24794;51.982;5.878;2023-11-19T03:54:24;53.50;;;7.50;;
39032;SDS011;24794;51.982;5.878;2023-11-19T03:55:25;58.33;;;6.80;;
39032;SDS011;24794;51.982;5.878;2023-11-19T03:56:25;45.35;;;6.95;;
39032;SDS011;24794;51.982;5.878;2023-11-19T03:57:27;45.25;;;6.47;;
39032;SDS011;24794;51.982;5.878;2023-11-19T03:58:27;51.45;;;7.05;;
39032;SDS011;24794;51.982;5.878;2023-11-19T03:59:28;49.53;;;6.28;;
39032;SDS011;24794;51.982;5.878;2023-11-19T04:00:28;59.85;;;6.93;;
39032;SDS011;24794;51.982;5.878;2023-11-19T04:01:29;56.17;;;7.10;;
39032;SDS011;24794;51.982;5.878;2023-11-19T04:02:30;55.75;;;7.13;;
39032;SDS011;24794;51.982;5.878;2023-11-19T04:03:30;46.45;;;6.30;;
39032;SDS011;24794;51.982;5.878;2023-11-19T04:04:31;49.20;;;6.80;;
39032;SDS011;24794;51.982;5.878;2023-11-19T04:05:32;41.78;;;6.15;;
39032;SDS011;24794;51.982;5.878;2023-11-19T04:06:32;51.13;;;6.82;;
39032;SDS011;24794;51.982;5.878;2023-11-19T04:07:34;47.40;;;6.95;;
39032;SDS011;24794;51.982;5.878;2023-11-19T04:08:34;50.35;;;6.25;;
39032;SDS011;24794;51.982;5.878;2023-11-19T04:09:35;46.45;;;5.97;;
39032;SDS011;24794;51.982;5.878;2023-11-19T04:10:37;47.33;;;7.32;;
39032;SDS011;24794;51.982;5.878;2023-11-19T04:11:38;54.50;;;7.68;;
39032;SDS011;24794;51.982;5.878;2023-11-19T04:14:02;51.15;;;6.25;;
39032;SDS011;24794;51.982;5.878;2023-11-19T04:15:02;53.55;;;6.63;;
39032;SDS011;24794;51.982;5.878;2023-11-19T04:16:04;62.08;;;7.45;;
39032;SDS011;24794;51.982;5.878;2023-11-19T04:17:05;51.67;;;7.07;;
39032;SDS011;24794;51.982;5.878;2023-11-19T04:18:05;49.50;;;7.15;;
39032;SDS011;24794;51.982;5.878;2023-11-19T04:19:06;59.10;;;7.78;;
39032;SDS011;24794;51.982;5.878;2023-11-19T04:20:07;47.30;;;6.60;;
39032;SDS011;24794;51.982;5.878;2023-11-19T04:21:12;48.88;;;7.03;;
39032;SDS011;24794;51.982;5.878;2023-11-19T04:22:12;56.28;;;7.75;;
39032;SDS011;24794;51.982;5.878;2023-11-19T04:23:13;57.53;;;7.45;;
39032;SDS011;24794;51.982;5.878;2023-11-19T04:24:14;53.75;;;6.65;;
39032;SDS011;24794;51.982;5.878;2023-11-19T04:25:15;47.88;;;6.95;;
39032;SDS011;24794;51.982;5.878;2023-11-19T04:26:16;48.78;;;8.05;;
39032;SDS011;24794;51.982;5.878;2023-11-19T04:27:17;45.38;;;6.28;;
39032;SDS011;24794;51.982;5.878;2023-11-19T04:28:17;56.30;;;7.03;;
39032;SDS011;24794;51.982;5.878;2023-11-19T04:29:18;50.40;;;6.85;;
39032;SDS011;24794;51.982;5.878;2023-11-19T04:30:19;53.65;;;7.22;;
39032;SDS011;24794;51.982;5.878;2023-11-19T04:31:20;42.40;;;6.25;;
39032;SDS011;24794;51.982;5.878;2023-11-19T04:32:20;51.03;;;7.13;;
39032;SDS011;24794;51.982;5.878;2023-11-19T04:33:21;56.63;;;7.68;;
39032;SDS011;24794;51.982;5.878;2023-11-19T04:34:21;53.20;;;6.18;;
39032;SDS011;24794;51.982;5.878;2023-11-19T04:35:22;52.40;;;6.63;;
39032;SDS011;24794;51.982;5.878;2023-11-19T04:36:22;51.05;;;7.00;;
39032;SDS011;24794;51.982;5.878;2023-11-19T04:37:24;45.83;;;6.45;;
39032;SDS011;24794;51.982;5.878;2023-11-19T04:38:25;51.78;;;7.35;;
39032;SDS011;24794;51.982;5.878;2023-11-19T04:39:26;55.22;;;6.82;;
39032;SDS011;24794;51.982;5.878;2023-11-19T04:40:27;55.10;;;6.70;;
39032;SDS011;24794;51.982;5.878;2023-11-19T04:41:28;54.97;;;6.47;;
39032;SDS011;24794;51.982;5.878;2023-11-19T04:42:28;48.25;;;6.65;;
39032;SDS011;24794;51.982;5.878;2023-11-19T04:43:29;48.08;;;6.13;;
39032;SDS011;24794;51.982;5.878;2023-11-19T04:44:30;37.97;;;6.13;;
39032;SDS011;24794;51.982;5.878;2023-11-19T04:45:30;48.90;;;6.13;;
39032;SDS011;24794;51.982;5.878;2023-11-19T04:46:32;47.22;;;6.28;;
39032;SDS011;24794;51.982;5.878;2023-11-19T04:47:33;55.13;;;7.15;;
39032;SDS011;24794;51.982;5.878;2023-11-19T04:48:34;52.22;;;7.70;;
39032;SDS011;24794;51.982;5.878;2023-11-19T04:49:34;45.97;;;6.78;;
39032;SDS011;24794;51.982;5.878;2023-11-19T04:50:35;48.20;;;6.45;;
39032;SDS011;24794;51.982;5.878;2023-11-19T04:51:39;44.88;;;6.63;;
39032;SDS011;24794;51.982;5.878;2023-11-19T04:52:43;36.38;;;5.57;;
39032;SDS011;24794;51.982;5.878;2023-11-19T04:53:45;52.65;;;6.45;;
39032;SDS011;24794;51.982;5.878;2023-11-19T04:54:45;52.92;;;6.45;;
39032;SDS011;24794;51.982;5.878;2023-11-19T04:55:46;62.42;;;7.43;;
39032;SDS011;24794;51.982;5.878;2023-11-19T04:56:47;60.33;;;7.63;;
39032;SDS011;24794;51.982;5.878;2023-11-19T04:57:48;40.45;;;6.30;;
39032;SDS011;24794;51.982;5.878;2023-11-19T04:58:49;43.95;;;6.60;;
39032;SDS011;24794;51.982;5.878;2023-11-19T04:59:49;43.60;;;6.65;;
39032;SDS011;24794;51.982;5.878;2023-11-19T05:00:50;46.83;;;6.32;;
39032;SDS011;24794;51.982;5.878;2023-11-19T05:01:50;45.03;;;6.68;;
39032;SDS011;24794;51.982;5.878;2023-11-19T05:02:51;42.85;;;6.13;;
39032;SDS011;24794;51.982;5.878;2023-11-19T05:03:51;53.70;;;6.82;;
39032;SDS011;24794;51.982;5.878;2023-11-19T05:04:52;39.90;;;6.32;;
39032;SDS011;24794;51.982;5.878;2023-11-19T05:05:52;55.85;;;7.32;;
39032;SDS011;24794;51.982;5.878;2023-11-19T05:06:53;57.70;;;6.80;;
39032;SDS011;24794;51.982;5.878;2023-11-19T05:07:54;47.10;;;6.65;;
39032;SDS011;24794;51.982;5.878;2023-11-19T05:08:58;48.85;;;6.65;;
39032;SDS011;24794;51.982;5.878;2023-11-19T05:10:09;45.08;;;7.15;;
39032;SDS011;24794;51.982;5.878;2023-11-19T05:11:09;54.05;;;7.05;;
39032;SDS011;24794;51.982;5.878;2023-11-19T05:12:12;42.08;;;6.13;;
39032;SDS011;24794;51.982;5.878;2023-11-19T05:13:12;48.97;;;6.88;;
39032;SDS011;24794;51.982;5.878;2023-11-19T05:14:13;48.85;;;7.43;;
39032;SDS011;24794;51.982;5.878;2023-11-19T05:15:13;49.38;;;7.07;;
39032;SDS011;24794;51.982;5.878;2023-11-19T05:16:14;46.13;;;6.55;;
39032;SDS011;24794;51.982;5.878;2023-11-19T05:17:15;49.40;;;6.85;;
39032;SDS011;24794;51.982;5.878;2023-11-19T05:18:18;45.03;;;7.35;;
39032;SDS011;24794;51.982;5.878;2023-11-19T05:19:18;48.20;;;6.47;;
39032;SDS011;24794;51.982;5.878;2023-11-19T05:20:19;50.85;;;7.05;;
39032;SDS011;24794;51.982;5.878;2023-11-19T05:21:19;52.22;;;6.72;;
39032;SDS011;24794;51.982;5.878;2023-11-19T05:22:20;58.83;;;7.00;;
39032;SDS011;24794;51.982;5.878;2023-11-19T05:23:20;45.72;;;7.28;;
39032;SDS011;24794;51.982;5.878;2023-11-19T05:24:21;48.60;;;6.75;;
39032;SDS011;24794;51.982;5.878;2023-11-19T05:25:21;52.95;;;7.57;;
39032;SDS011;24794;51.982;5.878;2023-11-19T05:26:22;50.60;;;6.13;;
39032;SDS011;24794;51.982;5.878;2023-11-19T05:27:23;46.97;;;6.50;;
39032;SDS011;24794;51.982;5.878;2023-11-19T05:28:24;48.15;;;7.68;;
39032;SDS011;24794;51.982;5.878;2023-11-19T05:29:26;57.83;;;7.85;;
39032;SDS011;24794;51.982;5.878;2023-11-19T05:30:27;42.80;;;6.25;;
39032;SDS011;24794;51.982;5.878;2023-11-19T05:31:27;50.20;;;6.85;;
39032;SDS011;24794;51.982;5.878;2023-11-19T05:32:28;50.75;;;6.45;;
39032;SDS011;24794;51.982;5.878;2023-11-19T05:33:28;58.00;;;7.90;;
39032;SDS011;24794;51.982;5.878;2023-11-19T05:34:29;43.08;;;6.00;;
39032;SDS011;24794;51.982;5.878;2023-11-19T05:35:29;52.17;;;6.85;;
39032;SDS011;24794;51.982;5.878;2023-11-19T05:36:30;46.35;;;6.93;;
39032;SDS011;24794;51.982;5.878;2023-11-19T05:37:30;52.63;;;6.80;;
39032;SDS011;24794;51.982;5.878;2023-11-19T05:38:31;55.38;;;6.88;;
39032;SDS011;24794;51.982;5.878;2023-11-19T05:39:31;44.83;;;6.25;;
39032;SDS011;24794;51.982;5.878;2023-11-19T05:40:32;53.03;;;6.82;;
39032;SDS011;24794;51.982;5.878;2023-11-19T05:41:32;49.60;;;6.55;;
39032;SDS011;24794;51.982;5.878;2023-11-19T05:42:33;51.95;;;7.68;;
39032;SDS011;24794;51.982;5.878;2023-11-19T05:43:34;49.30;;;7.10;;
39032;SDS011;24794;51.982;5.878;2023-11-19T05:44:34;39.83;;;6.47;;
39032;SDS011;24794;51.982;5.878;2023-11-19T05:45:35;38.60;;;6.63;;
39032;SDS011;24794;51.982;5.878;2023-11-19T05:46:35;57.08;;;7.47;;
39032;SDS011;24794;51.982;5.878;2023-11-19T05:47:40;47.20;;;6.78;;
39032;SDS011;24794;51.982;5.878;2023-11-19T05:48:41;56.58;;;7.72;;
39032;SDS011;24794;51.982;5.878;2023-11-19T05:49:41;43.10;;;6.28;;
39032;SDS011;24794;51.982;5.878;2023-11-19T05:50:42;43.08;;;6.88;;
39032;SDS011;24794;51.982;5.878;2023-11-19T05:51:42;49.22;;;7.50;;
39032;SDS011;24794;51.982;5.878;2023-11-19T05:52:43;55.33;;;6.82;;
39032;SDS011;24794;51.982;5.878;2023-11-19T05:53:44;55.55;;;7.00;;
39032;SDS011;24794;51.982;5.878;2023-11-19T05:54:47;57.00;;;7.78;;
39032;SDS011;24794;51.982;5.878;2023-11-19T05:55:51;48.22;;;6.57;;
39032;SDS011;24794;51.982;5.878;2023-11-19T05:56:55;50.90;;;7.13;;
39032;SDS011;24794;51.982;5.878;2023-11-19T05:57:57;48.90;;;6.30;;
39032;SDS011;24794;51.982;5.878;2023-11-19T05:58:58;54.03;;;6.63;;
39032;SDS011;24794;51.982;5.878;2023-11-19T06:00:01;42.05;;;6.68;;
39032;SDS011;24794;51.982;5.878;2023-11-19T06:01:02;47.53;;;6.93;;
39032;SDS011;24794;51.982;5.878;2023-11-19T06:02:07;50.92;;;6.30;;
39032;SDS011;24794;51.982;5.878;2023-11-19T06:03:07;46.55;;;6.20;;
39032;SDS011;24794;51.982;5.878;2023-11-19T06:04:08;48.15;;;6.28;;
39032;SDS011;24794;51.982;5.878;2023-11-19T06:05:09;56.47;;;6.95;;